createdAt,value
2019-03-23T00:02:26.784Z,11.60
2019-03-23T00:04:55.416Z,11.70
2019-03-23T00:07:24.283Z,11.60
2019-03-23T00:09:52.992Z,11.50
2019-03-23T00:12:21.814Z,11.50
2019-03-23T00:14:50.352Z,11.40
2019-03-23T00:17:19.226Z,11.50
2019-03-23T00:19:48.053Z,11.50
2019-03-23T00:22:16.977Z,11.60
2019-03-23T00:24:45.865Z,11.80
2019-03-23T00:27:14.693Z,11.60
2019-03-23T00:29:43.647Z,11.70
2019-03-23T00:32:12.388Z,11.80
2019-03-23T00:34:41.322Z,11.80
2019-03-23T00:37:10.222Z,11.80
2019-03-23T00:39:39.205Z,11.80
2019-03-23T00:42:08.010Z,11.90
2019-03-23T00:44:37.766Z,11.80
2019-03-23T00:47:06.593Z,11.90
2019-03-23T00:49:35.414Z,11.90
2019-03-23T00:52:04.064Z,12.00
2019-03-23T00:54:32.897Z,11.90
2019-03-23T00:57:01.844Z,12.00
2019-03-23T00:59:30.736Z,12.10
2019-03-23T01:01:59.874Z,11.90
2019-03-23T01:04:28.623Z,11.80
2019-03-23T01:06:57.609Z,11.90
2019-03-23T01:09:26.344Z,12.00
2019-03-23T01:11:55.232Z,12.10
2019-03-23T01:14:23.997Z,12.10
2019-03-23T01:16:52.805Z,12.20
2019-03-23T01:19:21.475Z,12.00
2019-03-23T01:21:50.335Z,12.00
2019-03-23T01:24:19.022Z,11.90
2019-03-23T01:26:47.704Z,11.80
2019-03-23T01:29:16.430Z,11.70
2019-03-23T01:31:45.131Z,11.60
2019-03-23T01:34:13.960Z,11.50
2019-03-23T01:36:42.675Z,11.50
2019-03-23T01:39:11.407Z,11.50
2019-03-23T01:41:40.224Z,11.30
2019-03-23T01:44:09.041Z,11.40
2019-03-23T01:46:37.904Z,11.30
2019-03-23T01:49:06.622Z,11.40
2019-03-23T01:51:35.448Z,11.40
2019-03-23T01:54:04.475Z,11.40
2019-03-23T01:56:33.319Z,11.30
2019-03-23T01:59:02.253Z,11.30
2019-03-23T02:01:30.963Z,11.20
2019-03-23T02:03:59.929Z,11.40
2019-03-23T02:06:28.937Z,11.60
2019-03-23T02:08:58.016Z,11.60
2019-03-23T02:11:26.843Z,11.60
2019-03-23T02:13:55.739Z,11.70
2019-03-23T02:16:24.454Z,11.60
2019-03-23T02:18:53.205Z,11.60
2019-03-23T02:21:21.955Z,11.60
2019-03-23T02:23:50.887Z,11.70
2019-03-23T02:26:19.670Z,11.90
2019-03-23T02:28:48.560Z,11.90
2019-03-23T02:31:17.270Z,11.90
2019-03-23T02:33:46.305Z,12.00
2019-03-23T02:36:15.297Z,12.10
2019-03-23T02:38:44.017Z,12.20
2019-03-23T02:41:12.921Z,12.20
2019-03-23T02:43:41.699Z,12.20
2019-03-23T02:46:10.659Z,12.10
2019-03-23T02:48:39.579Z,12.10
2019-03-23T02:51:08.508Z,12.10
2019-03-23T02:53:37.258Z,12.10
2019-03-23T02:56:05.866Z,12.20
2019-03-23T02:58:34.896Z,12.20
2019-03-23T03:01:05.402Z,12.00
2019-03-23T03:03:34.350Z,12.00
2019-03-23T03:06:03.341Z,12.00
2019-03-23T03:08:32.198Z,12.10
2019-03-23T03:11:00.943Z,12.10
2019-03-23T03:13:29.797Z,12.00
2019-03-23T03:15:58.517Z,12.00
2019-03-23T03:18:27.316Z,12.00
2019-03-23T03:20:56.061Z,12.00
2019-03-23T03:23:24.798Z,12.00
2019-03-23T03:25:53.535Z,12.00
2019-03-23T03:28:22.343Z,11.90
2019-03-23T03:30:51.150Z,12.10
2019-03-23T03:33:19.735Z,12.20
2019-03-23T03:35:48.575Z,12.20
2019-03-23T03:38:17.214Z,12.10
2019-03-23T03:40:45.991Z,12.10
2019-03-23T03:43:14.991Z,12.10
2019-03-23T03:45:43.594Z,12.00
2019-03-23T03:48:12.366Z,12.10
2019-03-23T03:50:41.214Z,12.00
2019-03-23T03:53:10.051Z,11.80
2019-03-23T03:55:38.661Z,11.90
2019-03-23T03:58:07.372Z,11.80
2019-03-23T04:00:35.976Z,11.90
2019-03-23T04:03:04.618Z,11.80
2019-03-23T04:05:33.421Z,11.70
2019-03-23T04:08:11.386Z,11.70
2019-03-23T04:10:51.404Z,11.70
2019-03-23T04:13:20.097Z,11.70
2019-03-23T04:15:48.775Z,11.70
2019-03-23T04:18:17.547Z,11.70
2019-03-23T04:20:46.165Z,11.70
2019-03-23T04:23:14.950Z,11.50
2019-03-23T04:25:43.905Z,11.40
2019-03-23T04:28:12.648Z,11.50
2019-03-23T04:30:41.406Z,11.30
2019-03-23T04:33:10.208Z,11.40
2019-03-23T04:35:39.048Z,11.40
2019-03-23T04:38:07.760Z,11.30
2019-03-23T04:40:36.618Z,11.40
2019-03-23T04:43:05.155Z,11.40
2019-03-23T04:45:33.835Z,11.40
2019-03-23T04:48:02.677Z,11.50
2019-03-23T04:50:31.295Z,11.50
2019-03-23T04:53:00.079Z,11.50
2019-03-23T04:55:29.034Z,11.60
2019-03-23T04:57:57.789Z,11.50
2019-03-23T05:00:26.500Z,11.40
2019-03-23T05:02:55.435Z,11.40
2019-03-23T05:05:24.426Z,11.20
2019-03-23T05:07:53.010Z,11.20
2019-03-23T05:10:21.757Z,11.10
2019-03-23T05:12:50.384Z,11.20
2019-03-23T05:15:19.176Z,11.10
2019-03-23T05:17:48.326Z,11.00
2019-03-23T05:20:26.679Z,11.10
2019-03-23T05:22:55.626Z,11.00
2019-03-23T05:25:25.160Z,11.00
2019-03-23T05:27:53.954Z,11.10
2019-03-23T05:30:22.827Z,11.20
2019-03-23T05:32:51.551Z,11.30
2019-03-23T05:35:20.108Z,11.20
2019-03-23T05:37:48.771Z,11.20
2019-03-23T05:40:17.387Z,11.10
2019-03-23T05:42:46.065Z,11.00
2019-03-23T05:45:14.724Z,11.00
2019-03-23T05:47:43.155Z,11.10
2019-03-23T05:50:11.911Z,11.30
2019-03-23T05:52:40.767Z,11.30
2019-03-23T05:55:09.612Z,11.40
2019-03-23T05:57:38.275Z,11.50
2019-03-23T06:00:07.256Z,11.60
2019-03-23T06:02:36.083Z,11.80
2019-03-23T06:05:05.378Z,11.90
2019-03-23T06:07:35.240Z,12.10
2019-03-23T06:10:04.583Z,12.30
2019-03-23T06:12:33.160Z,12.60
2019-03-23T06:15:01.823Z,12.80
2019-03-23T06:17:30.577Z,12.80
2019-03-23T06:19:59.214Z,13.00
2019-03-23T06:22:27.972Z,13.20
2019-03-23T06:24:56.639Z,13.40
2019-03-23T06:27:25.392Z,13.40
2019-03-23T06:29:53.992Z,13.50
2019-03-23T06:32:22.649Z,13.70
2019-03-23T06:34:51.449Z,13.90
2019-03-23T06:37:20.076Z,14.10
2019-03-23T06:39:48.493Z,14.60
2019-03-23T06:42:17.170Z,15.10
2019-03-23T06:44:46.268Z,15.50
2019-03-23T06:47:14.954Z,16.50
2019-03-23T06:49:43.564Z,17.80
2019-03-23T06:52:12.364Z,18.70
2019-03-23T06:54:41.129Z,19.40
2019-03-23T06:57:10.021Z,20.60
2019-03-23T06:59:38.970Z,20.90
2019-03-23T07:02:07.997Z,21.10
2019-03-23T07:04:36.590Z,21.30
2019-03-23T07:07:05.339Z,22.40
2019-03-23T07:09:34.141Z,22.70
2019-03-23T07:12:02.913Z,23.10
2019-03-23T07:14:31.785Z,23.60
2019-03-23T07:17:00.354Z,23.80
2019-03-23T07:19:28.985Z,23.40
2019-03-23T07:21:57.799Z,23.70
2019-03-23T07:24:26.356Z,24.10
2019-03-23T07:26:55.084Z,24.40
2019-03-23T07:29:23.807Z,24.40
2019-03-23T07:31:52.519Z,24.40
2019-03-23T07:34:21.299Z,24.40
2019-03-23T07:36:50.048Z,24.30
2019-03-23T07:39:26.764Z,24.50
2019-03-23T07:41:49.293Z,24.20
2019-03-23T07:44:17.944Z,23.80
2019-03-23T07:46:46.584Z,23.60
2019-03-23T07:49:15.311Z,24.30
2019-03-23T07:51:44.127Z,24.90
2019-03-23T07:54:12.785Z,25.40
2019-03-23T07:56:41.526Z,25.20
2019-03-23T07:59:10.379Z,25.70
2019-03-23T08:01:39.154Z,26.40
2019-03-23T08:04:07.899Z,26.00
2019-03-23T08:06:36.685Z,25.70
2019-03-23T08:09:06.489Z,26.00
2019-03-23T08:11:35.162Z,25.70
2019-03-23T08:14:03.913Z,25.70
2019-03-23T08:16:33.569Z,26.40
2019-03-23T08:19:02.357Z,25.40
2019-03-23T08:21:31.371Z,24.90
2019-03-23T08:23:59.866Z,24.80
2019-03-23T08:26:28.616Z,24.20
2019-03-23T08:28:57.679Z,23.70
2019-03-23T08:31:26.321Z,24.20
2019-03-23T08:33:55.200Z,24.40
2019-03-23T08:36:24.181Z,24.90
2019-03-23T08:38:52.860Z,24.60
2019-03-23T08:41:21.475Z,24.10
2019-03-23T08:43:50.197Z,24.30
2019-03-23T08:46:18.926Z,24.40
2019-03-23T08:48:47.705Z,24.40
2019-03-23T08:51:16.556Z,24.60
2019-03-23T08:53:45.273Z,24.50
2019-03-23T08:56:13.919Z,24.30
2019-03-23T08:58:40.670Z,23.60
2019-03-23T09:01:09.395Z,24.00
2019-03-23T09:03:38.120Z,24.50
2019-03-23T09:06:06.931Z,23.90
2019-03-23T09:08:35.635Z,23.80
2019-03-23T09:11:04.232Z,23.90
2019-03-23T09:13:40.518Z,24.10
2019-03-23T09:16:03.445Z,24.30
2019-03-23T09:18:34.168Z,23.80
2019-03-23T09:21:02.892Z,24.30
2019-03-23T09:23:31.744Z,24.70
2019-03-23T09:26:00.352Z,24.30
2019-03-23T09:28:29.086Z,23.30
2019-03-23T09:30:57.652Z,24.00
2019-03-23T09:33:26.201Z,23.40
2019-03-23T09:35:54.826Z,24.00
2019-03-23T09:38:23.383Z,24.30
2019-03-23T09:40:52.140Z,24.20
2019-03-23T09:43:20.928Z,23.90
2019-03-23T09:45:49.735Z,23.60
2019-03-23T09:48:18.514Z,24.10
2019-03-23T09:50:47.407Z,23.70
2019-03-23T09:53:16.185Z,23.00
2019-03-23T09:55:44.672Z,22.80
2019-03-23T09:58:13.509Z,22.90
2019-03-23T10:00:42.267Z,22.90
2019-03-23T10:03:10.929Z,23.60
2019-03-23T10:05:39.669Z,23.20
2019-03-23T10:08:08.296Z,23.70
2019-03-23T10:10:37.198Z,24.00
2019-03-23T10:13:05.954Z,24.10
2019-03-23T10:15:34.662Z,24.10
2019-03-23T10:18:03.339Z,24.70
2019-03-23T10:20:32.008Z,24.70
2019-03-23T10:23:00.712Z,24.70
2019-03-23T10:25:29.472Z,25.10
2019-03-23T10:27:58.246Z,24.10
2019-03-23T10:30:26.798Z,24.60
2019-03-23T10:32:55.573Z,25.00
2019-03-23T10:35:24.216Z,24.60
2019-03-23T10:37:53.032Z,24.50
2019-03-23T10:40:31.680Z,25.00
2019-03-23T10:42:52.246Z,25.70
2019-03-23T10:45:20.927Z,25.60
2019-03-23T10:47:49.817Z,25.90
2019-03-23T10:50:18.624Z,26.30
2019-03-23T10:52:47.383Z,26.50
2019-03-23T10:55:16.175Z,25.90
2019-03-23T10:57:45.059Z,26.00
2019-03-23T11:00:14.781Z,26.10
2019-03-23T11:02:43.497Z,24.70
2019-03-23T11:05:12.299Z,25.40
2019-03-23T11:07:40.918Z,26.40
2019-03-23T11:10:09.934Z,25.80
2019-03-23T11:12:38.677Z,25.50
2019-03-23T11:15:08.608Z,26.40
2019-03-23T11:17:37.325Z,27.00
2019-03-23T11:20:08.108Z,27.00
2019-03-23T11:22:36.736Z,26.70
2019-03-23T11:25:06.240Z,26.60
2019-03-23T11:27:35.083Z,26.40
2019-03-23T11:30:04.138Z,26.50
2019-03-23T11:32:32.667Z,26.10
2019-03-23T11:35:01.549Z,26.40
2019-03-23T11:37:30.451Z,26.30
2019-03-23T11:39:59.368Z,26.10
2019-03-23T11:42:28.147Z,26.00
2019-03-23T11:44:56.802Z,25.70
2019-03-23T11:47:25.580Z,25.90
2019-03-23T11:49:54.376Z,26.70
2019-03-23T11:52:23.099Z,26.80
2019-03-23T11:54:51.832Z,26.50
2019-03-23T11:57:20.649Z,26.70
2019-03-23T11:59:49.371Z,26.90
2019-03-23T12:02:18.182Z,27.10
2019-03-23T12:04:47.006Z,26.90
2019-03-23T12:07:15.731Z,26.60
2019-03-23T12:09:44.418Z,26.60
2019-03-23T12:12:13.218Z,26.60
2019-03-23T12:14:41.996Z,26.60
2019-03-23T12:17:10.872Z,26.60
2019-03-23T12:19:39.719Z,25.90
2019-03-23T12:22:08.444Z,26.40
2019-03-23T12:24:37.141Z,26.70
2019-03-23T12:27:05.960Z,26.10
2019-03-23T12:29:34.666Z,24.70
2019-03-23T12:32:03.402Z,25.10
2019-03-23T12:34:32.253Z,25.00
2019-03-23T12:37:00.843Z,25.60
2019-03-23T12:39:29.356Z,26.10
2019-03-23T12:41:58.257Z,26.20
2019-03-23T12:44:27.025Z,25.90
2019-03-23T12:46:55.805Z,26.30
2019-03-23T12:49:30.712Z,26.20
2019-03-23T12:51:59.428Z,25.90
2019-03-23T12:54:28.346Z,25.10
2019-03-23T12:56:57.072Z,25.30
2019-03-23T12:59:25.746Z,25.30
2019-03-23T13:01:54.417Z,25.40
2019-03-23T13:04:23.105Z,25.50
2019-03-23T13:06:51.677Z,25.30
2019-03-23T13:09:20.340Z,25.50
2019-03-23T13:11:49.078Z,24.40
2019-03-23T13:14:17.791Z,24.90
2019-03-23T13:16:46.380Z,24.70
2019-03-23T13:19:15.035Z,24.10
2019-03-23T13:21:45.205Z,23.20
2019-03-23T13:24:13.881Z,22.70
2019-03-23T13:26:42.631Z,22.20
2019-03-23T13:29:11.358Z,22.50
2019-03-23T13:31:39.925Z,22.80
2019-03-23T13:34:08.683Z,22.80
2019-03-23T13:36:37.526Z,22.20
2019-03-23T13:39:06.764Z,22.60
2019-03-23T13:41:41.187Z,22.70
2019-03-23T13:44:05.441Z,22.90
2019-03-23T13:46:34.109Z,22.90
2019-03-23T13:49:03.055Z,22.40
2019-03-23T13:51:31.786Z,21.70
2019-03-23T13:54:00.448Z,21.80
2019-03-23T13:56:29.373Z,21.90
2019-03-23T13:58:58.085Z,21.60
2019-03-23T14:01:26.824Z,21.70
2019-03-23T14:03:55.716Z,21.80
2019-03-23T14:06:24.401Z,21.90
2019-03-23T14:08:53.184Z,21.90
2019-03-23T14:11:22.042Z,22.30
2019-03-23T14:13:50.759Z,22.30
2019-03-23T14:16:19.547Z,22.40
2019-03-23T14:18:48.292Z,21.80
2019-03-23T14:21:17.003Z,21.60
2019-03-23T14:23:46.843Z,21.70
2019-03-23T14:26:15.380Z,21.90
2019-03-23T14:28:43.887Z,22.00
2019-03-23T14:31:12.672Z,22.00
2019-03-23T14:33:41.583Z,21.60
2019-03-23T14:36:10.374Z,21.60
2019-03-23T14:38:39.036Z,21.70
2019-03-23T14:41:07.861Z,20.90
2019-03-23T14:43:36.365Z,21.00
2019-03-23T14:46:04.900Z,21.20
2019-03-23T14:48:33.655Z,21.40
2019-03-23T14:51:02.462Z,21.40
2019-03-23T14:53:31.142Z,21.30
2019-03-23T14:55:59.795Z,21.20
2019-03-23T14:58:28.532Z,21.10
2019-03-23T15:00:57.124Z,21.20
2019-03-23T15:03:25.894Z,21.40
2019-03-23T15:05:54.480Z,21.00
2019-03-23T15:08:22.950Z,20.70
2019-03-23T15:10:51.880Z,20.60
2019-03-23T15:13:20.444Z,20.70
2019-03-23T15:15:49.194Z,20.40
2019-03-23T15:18:18.184Z,20.50
2019-03-23T15:20:46.887Z,20.30
2019-03-23T15:23:15.810Z,20.20
2019-03-23T15:25:45.776Z,20.10
2019-03-23T15:28:14.654Z,20.20
2019-03-23T15:30:43.471Z,20.50
2019-03-23T15:33:12.160Z,20.60
2019-03-23T15:35:40.677Z,20.50
2019-03-23T15:38:09.423Z,20.00
2019-03-23T15:40:38.188Z,19.90
2019-03-23T15:43:06.819Z,20.20
2019-03-23T15:45:35.305Z,20.20
2019-03-23T15:48:03.927Z,20.30
2019-03-23T15:50:32.547Z,20.10
2019-03-23T15:53:01.072Z,19.90
2019-03-23T15:55:29.808Z,19.80
2019-03-23T15:57:58.464Z,19.70
2019-03-23T16:00:27.100Z,19.80
2019-03-23T16:02:55.828Z,19.90
2019-03-23T16:05:24.360Z,20.00
2019-03-23T16:07:53.138Z,20.10
2019-03-23T16:10:22.943Z,20.20
2019-03-23T16:12:52.799Z,20.00
2019-03-23T16:15:21.590Z,19.90
2019-03-23T16:17:50.359Z,19.70
2019-03-23T16:20:19.447Z,19.80
2019-03-23T16:22:48.184Z,19.60
2019-03-23T16:25:16.722Z,19.50
2019-03-23T16:27:45.524Z,19.50
2019-03-23T16:30:17.066Z,19.40
2019-03-23T16:32:45.667Z,19.30
2019-03-23T16:35:14.420Z,19.30
2019-03-23T16:37:43.280Z,19.10
2019-03-23T16:40:11.925Z,19.00
2019-03-23T16:42:45.200Z,18.90
2019-03-23T16:45:11.391Z,18.90
2019-03-23T16:47:40.134Z,19.00
2019-03-23T16:50:09.498Z,18.70
2019-03-23T16:52:38.464Z,18.50
2019-03-23T16:55:08.054Z,18.60
2019-03-23T16:57:36.875Z,18.60
2019-03-23T17:00:06.228Z,18.50
2019-03-23T17:02:34.873Z,18.50
2019-03-23T17:05:03.815Z,18.50
2019-03-23T17:07:32.308Z,18.40
2019-03-23T17:10:01.047Z,18.30
2019-03-23T17:12:29.598Z,18.20
2019-03-23T17:14:58.604Z,18.20
2019-03-23T17:17:27.298Z,18.20
2019-03-23T17:19:55.987Z,18.10
2019-03-23T17:22:25.172Z,18.10
2019-03-23T17:24:53.952Z,17.90
2019-03-23T17:27:22.748Z,18.00
2019-03-23T17:29:51.570Z,17.90
2019-03-23T17:32:20.543Z,17.90
2019-03-23T17:34:49.241Z,17.80
2019-03-23T17:37:18.061Z,17.80
2019-03-23T17:39:46.800Z,17.90
2019-03-23T17:42:15.333Z,17.80
2019-03-23T17:44:46.148Z,17.70
2019-03-23T17:47:14.676Z,17.80
2019-03-23T17:49:43.356Z,17.70
2019-03-23T17:52:12.140Z,17.60
2019-03-23T17:54:40.872Z,17.60
2019-03-23T17:57:09.544Z,17.60
2019-03-23T17:59:38.392Z,17.60
2019-03-23T18:02:06.989Z,17.50
2019-03-23T18:04:35.576Z,17.40
2019-03-23T18:07:04.244Z,17.60
2019-03-23T18:09:32.856Z,17.50
2019-03-23T18:12:01.858Z,17.40
2019-03-23T18:14:30.515Z,17.50
2019-03-23T18:16:59.326Z,17.50
2019-03-23T18:19:28.005Z,17.50
2019-03-23T18:21:56.767Z,17.50
2019-03-23T18:24:25.565Z,17.50
2019-03-23T18:26:54.307Z,17.50
2019-03-23T18:29:23.018Z,17.40
2019-03-23T18:31:51.652Z,17.30
2019-03-23T18:34:20.350Z,17.20
2019-03-23T18:36:49.473Z,17.30
2019-03-23T18:39:18.287Z,17.20
2019-03-23T18:41:46.981Z,17.10
2019-03-23T18:44:16.594Z,17.20
2019-03-23T18:46:45.603Z,17.30
2019-03-23T18:49:14.463Z,17.20
2019-03-23T18:51:43.221Z,17.20
2019-03-23T18:54:11.886Z,17.10
2019-03-23T18:56:40.636Z,17.10
2019-03-23T18:59:09.527Z,17.00
2019-03-23T19:01:38.326Z,16.90
2019-03-23T19:04:06.796Z,16.80
2019-03-23T19:06:35.541Z,16.60
2019-03-23T19:09:06.021Z,16.40
2019-03-23T19:11:34.780Z,16.40
2019-03-23T19:14:03.432Z,16.20
2019-03-23T19:16:32.209Z,16.20
2019-03-23T19:19:00.785Z,16.20
2019-03-23T19:21:29.602Z,16.00
2019-03-23T19:23:58.295Z,16.00
2019-03-23T19:26:26.918Z,15.90
2019-03-23T19:28:55.736Z,15.90
2019-03-23T19:31:24.410Z,15.80
2019-03-23T19:33:52.982Z,15.50
2019-03-23T19:36:22.075Z,15.40
2019-03-23T19:38:50.831Z,15.40
2019-03-23T19:41:19.643Z,15.20
2019-03-23T19:43:50.722Z,15.20
2019-03-23T19:46:18.670Z,15.20
2019-03-23T19:48:47.416Z,15.00
2019-03-23T19:51:16.277Z,15.10
2019-03-23T19:53:45.149Z,15.00
2019-03-23T19:56:13.904Z,14.90
2019-03-23T19:58:42.744Z,15.00
2019-03-23T20:01:11.276Z,15.00
2019-03-23T20:03:40.183Z,15.00
2019-03-23T20:06:09.994Z,14.70
2019-03-23T20:08:38.657Z,14.60
2019-03-23T20:11:07.419Z,14.70
2019-03-23T20:13:36.107Z,14.70
2019-03-23T20:16:04.977Z,14.60
2019-03-23T20:18:33.596Z,14.30
2019-03-23T20:21:02.231Z,14.30
2019-03-23T20:23:30.757Z,14.30
2019-03-23T20:25:59.258Z,14.20
2019-03-23T20:28:27.986Z,14.20
2019-03-23T20:30:56.611Z,14.20
2019-03-23T20:33:25.399Z,14.20
2019-03-23T20:35:54.218Z,14.10
2019-03-23T20:38:22.879Z,14.00
2019-03-23T20:40:51.847Z,14.00
2019-03-23T20:43:20.616Z,14.10
2019-03-23T20:45:49.331Z,14.10
2019-03-23T20:48:18.246Z,14.10
2019-03-23T20:50:47.249Z,14.20
2019-03-23T20:53:17.000Z,14.40
2019-03-23T20:55:45.807Z,14.40
2019-03-23T20:58:14.483Z,14.40
2019-03-23T21:00:43.383Z,14.40
2019-03-23T21:03:12.205Z,14.50
2019-03-23T21:05:44.560Z,14.50
2019-03-23T21:08:13.296Z,14.60
2019-03-23T21:10:42.601Z,14.50
2019-03-23T21:13:11.398Z,14.50
2019-03-23T21:15:40.012Z,14.60
2019-03-23T21:18:08.714Z,14.60
2019-03-23T21:20:37.658Z,14.60
2019-03-23T21:23:06.377Z,14.50
2019-03-23T21:25:35.164Z,14.40
2019-03-23T21:28:03.903Z,14.20
2019-03-23T21:30:32.632Z,14.00
2019-03-23T21:33:01.227Z,14.00
2019-03-23T21:35:30.066Z,14.10
2019-03-23T21:37:58.806Z,14.00
2019-03-23T21:40:27.497Z,13.90
2019-03-23T21:42:56.319Z,13.80
2019-03-23T21:45:24.967Z,13.90
2019-03-23T21:47:53.757Z,13.80
2019-03-23T21:50:22.386Z,13.70
2019-03-23T21:52:51.216Z,13.80
2019-03-23T21:55:20.018Z,13.80
2019-03-23T21:57:48.900Z,13.70
2019-03-23T22:00:29.764Z,13.70
2019-03-23T22:02:58.403Z,13.70
2019-03-23T22:05:27.230Z,13.80
2019-03-23T22:07:56.015Z,13.80
2019-03-23T22:10:24.824Z,13.80
2019-03-23T22:12:53.491Z,13.70
2019-03-23T22:15:22.167Z,13.80
2019-03-23T22:17:50.752Z,13.80
2019-03-23T22:20:19.375Z,13.80
2019-03-23T22:22:48.168Z,13.80
2019-03-23T22:25:17.020Z,13.50
2019-03-23T22:27:45.800Z,13.50
2019-03-23T22:30:15.023Z,13.40
2019-03-23T22:32:43.751Z,13.50
2019-03-23T22:35:12.278Z,13.50
2019-03-23T22:37:40.975Z,13.50
2019-03-23T22:40:10.271Z,13.40
2019-03-23T22:42:38.940Z,13.50
2019-03-23T22:45:07.742Z,13.50
2019-03-23T22:47:36.491Z,13.40
2019-03-23T22:50:05.455Z,13.30
2019-03-23T22:52:34.200Z,13.20
2019-03-23T22:55:02.995Z,13.20
2019-03-23T22:57:31.769Z,13.20
2019-03-23T23:00:00.564Z,13.20
2019-03-23T23:02:29.406Z,13.10
2019-03-23T23:04:58.153Z,13.20
2019-03-23T23:07:26.818Z,13.20
2019-03-23T23:09:55.584Z,13.20
2019-03-23T23:12:24.283Z,13.20
2019-03-23T23:15:03.775Z,13.40
2019-03-23T23:17:23.603Z,13.30
2019-03-23T23:19:52.404Z,13.40
2019-03-23T23:22:21.114Z,13.20
2019-03-23T23:24:49.932Z,13.20
2019-03-23T23:27:18.675Z,13.20
2019-03-23T23:29:47.382Z,13.20
2019-03-23T23:32:16.100Z,13.30
2019-03-23T23:34:44.717Z,13.20
2019-03-23T23:37:13.405Z,13.00
2019-03-23T23:39:42.203Z,13.20
2019-03-23T23:42:10.870Z,13.00
2019-03-23T23:44:39.580Z,12.90
2019-03-23T23:47:08.483Z,13.00
2019-03-23T23:49:37.063Z,12.90
2019-03-23T23:52:05.711Z,12.90
2019-03-23T23:54:34.454Z,12.70
2019-03-23T23:57:03.183Z,12.70
2019-03-23T23:59:31.786Z,12.70
